x

Smith Island, Wa (sisw1) Weather Station

10:00am - Wed 26th Jul 2017 All times are PDT. -7 hours from GMT.

  • Wind
    16mph, 18mph gusts
  • 空気 Temp 53°f
  • Sea Pressure 1019mb
  • Smith Island, Wa
  • Smith Island, Wa

More Historic Weather Station data

Upgrade to MSW Pro to gain access to the past 30 days of data for over 8000 Wavebouys and Weather Stations around the globe.

Join Pro

Comparision Forecast

View Surf forecast
   
Wed 07/26 10:00am 16 18 mph 1019mb 53f
9:00am 20 22 mph 1018.8mb 53f
8:00am 23 25 mph 1018.7mb 52f
7:00am 22 24 mph 1018.1mb 52f
6:00am 17 20 mph 1017.9mb 52f
5:00am 20 22 mph 1017.4mb 52f
4:00am 15 17 mph 1017mb 52f
3:00am 15 15 mph 1016.9mb 53f
2:00am 10 13 mph 1017mb 53f
1:00am 10 14 mph 1016.6mb 53f
12:00am 13 18 mph 1016.5mb 53f
Tue 07/25 11:00pm 22 25 mph 1015.7mb 53f
10:00pm 24 32 mph 1015.4mb 54f
9:00pm 22 25 mph 1015.5mb 55f
8:00pm 13 16 mph 1015.9mb 56f
7:00pm 9 10 mph 1016mb 57f
6:00pm 15 16 mph 1016.2mb 57f
5:00pm 11 15 mph 1016.5mb 58f
4:00pm 7 8 mph 1016.7mb 60f
3:00pm 6 7 mph 1017mb 59f
2:00pm 5 6 mph 1017.3mb 60f
1:00pm 5 7 mph 1017.6mb 59f
12:00pm 5 6 mph 1017.7mb 60f
11:00am 5 5 mph 1017.8mb 59f
10:00am 6 6 mph 1017.8mb 57f
9:00am 3 5 mph 1017.7mb 56f
8:00am  -  1 mph 1017.5mb 55f
7:00am 5 6 mph 1017.1mb 53f
6:00am 7 7 mph 1016.9mb 52f
5:00am 8 8 mph 1016.3mb 53f
4:00am 6 6 mph 1016mb 53f
3:00am 5 6 mph 1016mb 53f
2:00am 5 5 mph 1015.8mb 54f
1:00am 6 8 mph 1015.6mb 56f
12:00am 6 7 mph 1015.4mb 55f
Mon 07/24 11:00pm 3 5 mph 1015.2mb 54f
10:00pm 6 7 mph 1015.1mb 54f
9:00pm 9 10 mph 1014.8mb 55f
8:00pm 13 15 mph 1014.6mb 56f
7:00pm 7 8 mph 1014.7mb 61f
6:00pm 2 2 mph 1014.8mb 64f
5:00pm 2 3 mph 1015.1mb 64f
4:00pm 6 7 mph 1015.6mb 64f
3:00pm 8 9 mph 1016.1mb 65f
2:00pm 3 6 mph 1016.6mb 64f
1:00pm 3 5 mph 1017.2mb 64f
12:00pm 6 6 mph 1017.6mb 60f
11:00am 5 6 mph 1018mb 61f
10:00am 5 6 mph 1018.1mb 59f
9:00am 6 6 mph 1018.2mb 58f
8:00am 8 8 mph 1018.1mb 55f
7:00am 8 8 mph 1017.8mb 54f
6:00am 5 5 mph 1017.6mb 53f
5:00am 7 8 mph 1017.4mb 52f
4:00am 10 10 mph 1017.1mb 52f
3:00am 9 10 mph 1017.4mb 53f
2:00am 2 3 mph 1017.5mb 53f
1:00am  -  1 mph 1017.5mb 52f
12:00am  -  1 mph 1017.5mb 52f
Sun 07/23 11:00pm 8 9 mph 1017.4mb 53f
10:00pm 8 9 mph 1017.4mb 54f
9:00pm 15 16 mph 1017.2mb 55f
8:00pm 14 15 mph 1017.3mb 55f
7:00pm 9 10 mph 1017.4mb 55f
6:00pm 8 9 mph 1017.8mb 58f
5:00pm 11 13 mph 1018.3mb 59f
4:00pm 11 13 mph 1018.8mb 58f
3:00pm 11 11 mph 1018.9mb 57f
2:00pm 15 16 mph 1019mb 57f
1:00pm 18 21 mph 1019.2mb 56f
12:00pm 17 22 mph 1019.3mb 56f
11:00am 15 20 mph 1019.6mb 56f
10:00am 15 21 mph 1019.5mb 55f
9:00am 17 26 mph 1019.4mb 55f
8:00am 18 24 mph 1019.1mb 55f
7:00am 21 24 mph 1018.8mb 54f
6:00am 21 23 mph 1018.7mb 54f
5:00am 22 25 mph 1018.6mb 54f
4:00am 20 30 mph 1018.5mb 55f
3:00am 22 30 mph 1018.5mb 54f
2:00am 16 22 mph 1018.8mb 53f
1:00am 3 3 mph 1019.6mb 54f
12:00am 18 21 mph 1019.7mb 54f
Sat 07/22 11:00pm 15 17 mph 1020mb 55f
10:00pm 16 17 mph 1020.1mb 56f
9:00pm 13 16 mph 1020mb 55f
8:00pm 13 16 mph 1020mb 56f
7:00pm 13 15 mph 1020.2mb 57f